Wetterdaten: aktuell Donnerstag, 22.06.2017 22:15
Datum Zeit Temp. A. Temp. A. min Feuchte A. Luftdruck Regen Wind Richtung Richtung Sonnenschein Solar Taupunkt Windchill Windben
22.06.2017 22:15 27,0 C 27,0 C 66 % 1008,9 hPa 0,0 l/m 0,4 km/h (0 Bft) N 5 0 min 0 W/m 20,1 C 27,0 C 3,2 km/h (1 Bft)
22.06.2017 22:10 27,2 C 27,2 C 65 % 1008,9 hPa 0,0 l/m 0,7 km/h (0 Bft) N 5 0 min 0 W/m 20,0 C 27,2 C 3,2 km/h (1 Bft)
22.06.2017 22:05 27,3 C 27,3 C 65 % 1008,9 hPa 0,0 l/m 0,9 km/h (0 Bft) N 5 0 min 0 W/m 20,1 C 27,3 C 3,2 km/h (1 Bft)
22.06.2017 22:00 27,5 C 27,5 C 64 % 1008,9 hPa 0,0 l/m 1,2 km/h (1 Bft) N 5 0 min 0 W/m 20,1 C 27,5 C 3,2 km/h (1 Bft)
22.06.2017 21:55 27,7 C 27,7 C 64 % 1008,9 hPa 0,0 l/m 1,1 km/h (1 Bft) N 5 0 min 0 W/m 20,3 C 27,7 C 3,2 km/h (1 Bft)
22.06.2017 21:50 27,9 C 27,9 C 64 % 1008,9 hPa 0,0 l/m 0,3 km/h (0 Bft) N 5 0 min 0 W/m 20,4 C 27,9 C 1,6 km/h (1 Bft)
22.06.2017 21:45 28,1 C 28,1 C 63 % 1008,9 hPa 0,0 l/m 0,0 km/h (0 Bft) N 5 0 min 0 W/m 20,4 C 28,1 C 1,6 km/h (1 Bft)
22.06.2017 21:40 28,3 C 28,3 C 63 % 1008,8 hPa 0,0 l/m 0,2 km/h (0 Bft) N 5 0 min 0 W/m 20,6 C 28,3 C 1,6 km/h (1 Bft)
22.06.2017 21:35 28,4 C 28,4 C 62 % 1008,8 hPa 0,0 l/m 1,0 km/h (0 Bft) N 5 0 min 0 W/m 20,4 C 28,4 C 3,2 km/h (1 Bft)
22.06.2017 21:30 28,6 C 28,6 C 62 % 1008,8 hPa 0,0 l/m 1,8 km/h (1 Bft) N 5 0 min 0 W/m 20,6 C 28,6 C 3,2 km/h (1 Bft)
22.06.2017 21:25 28,8 C 28,8 C 60 % 1008,8 hPa 0,0 l/m 1,1 km/h (1 Bft) N 5 0 min 0 W/m 20,2 C 28,8 C 3,2 km/h (1 Bft)
22.06.2017 21:20 28,9 C 28,9 C 60 % 1008,7 hPa 0,0 l/m 1,3 km/h (1 Bft) N 5 0 min 0 W/m 20,3 C 28,9 C 3,2 km/h (1 Bft)
22.06.2017 21:15 29,0 C 29,0 C 60 % 1008,7 hPa 0,0 l/m 2,0 km/h (1 Bft) N 9 0 min 0 W/m 20,4 C 29,0 C 4,8 km/h (1 Bft)
22.06.2017 21:10 29,1 C 29,1 C 59 % 1008,7 hPa 0,0 l/m 2,2 km/h (1 Bft) N 9 0 min 0 W/m 20,2 C 29,1 C 4,8 km/h (1 Bft)
22.06.2017 21:05 29,2 C 29,2 C 58 % 1008,6 hPa 0,0 l/m 1,7 km/h (1 Bft) N 5 0 min 0 W/m 20,1 C 29,2 C 4,8 km/h (1 Bft)
22.06.2017 21:00 29,3 C 29,3 C 58 % 1008,5 hPa 0,0 l/m 2,2 km/h (1 Bft) N 5 0 min 0 W/m 20,2 C 29,3 C 4,8 km/h (1 Bft)
22.06.2017 20:55 29,4 C 29,4 C 59 % 1008,5 hPa 0,0 l/m 0,8 km/h (0 Bft) N 360 0 min 0 W/m 20,5 C 29,4 C 3,2 km/h (1 Bft)
22.06.2017 20:50 29,6 C 29,6 C 58 % 1008,5 hPa 0,0 l/m 1,7 km/h (1 Bft) N 360 0 min 0 W/m 20,4 C 29,6 C 4,8 km/h (1 Bft)
22.06.2017 20:45 29,8 C 29,8 C 58 % 1008,7 hPa 0,0 l/m 1,9 km/h (1 Bft) NO 54 0 min 0 W/m 20,6 C 29,8 C 4,8 km/h (1 Bft)
22.06.2017 20:40 30,1 C 30,1 C 58 % 1008,8 hPa 0,0 l/m 2,2 km/h (1 Bft) N-NO 31 0 min 0 W/m 20,9 C 30,1 C 4,8 km/h (1 Bft)
22.06.2017 20:35 30,3 C 30,3 C 57 % 1009,0 hPa 0,0 l/m 1,7 km/h (1 Bft) NO 53 0 min 0 W/m 20,8 C 30,3 C 4,8 km/h (1 Bft)
22.06.2017 20:30 30,6 C 30,5 C 55 % 1009,2 hPa 0,0 l/m 2,2 km/h (1 Bft) NO 56 0 min 0 W/m 20,5 C 30,6 C 3,2 km/h (1 Bft)
22.06.2017 20:25 30,7 C 30,7 C 54 % 1009,4 hPa 0,0 l/m 1,1 km/h (1 Bft) NO 56 0 min 0 W/m 20,3 C 30,7 C 3,2 km/h (1 Bft)
22.06.2017 20:20 30,8 C 30,8 C 53 % 1009,6 hPa 0,0 l/m 1,2 km/h (1 Bft) NO 56 0 min 0 W/m 20,1 C 30,8 C 3,2 km/h (1 Bft)
22.06.2017 20:15 30,9 C 30,9 C 52 % 1009,5 hPa 0,0 l/m 1,0 km/h (0 Bft) NO 56 0 min 0 W/m 19,9 C 30,9 C 3,2 km/h (1 Bft)
22.06.2017 20:10 31,1 C 31,1 C 52 % 1009,5 hPa 0,0 l/m 0,2 km/h (0 Bft) NO 56 0 min 0 W/m 20,1 C 31,1 C 1,6 km/h (1 Bft)
22.06.2017 20:05 31,2 C 31,2 C 52 % 1009,6 hPa 0,0 l/m 0,6 km/h (0 Bft) NO 56 0 min 0 W/m 20,1 C 31,2 C 3,2 km/h (1 Bft)
22.06.2017 20:00 31,4 C 31,4 C 51 % 1009,5 hPa 0,0 l/m 0,1 km/h (0 Bft) NO 56 0 min 0 W/m 20,0 C 31,4 C 1,6 km/h (1 Bft)
22.06.2017 19:55 31,5 C 31,5 C 50 % 1009,5 hPa 0,0 l/m 0,7 km/h (0 Bft) NO 56 0 min 0 W/m 19,8 C 31,5 C 3,2 km/h (1 Bft)
22.06.2017 19:50 31,7 C 31,7 C 49 % 1009,6 hPa 0,0 l/m 2,9 km/h (1 Bft) NO 51 0 min 0 W/m 19,6 C 31,7 C 4,8 km/h (1 Bft)
22.06.2017 19:45 31,9 C 31,8 C 49 % 1009,5 hPa 0,0 l/m 2,2 km/h (1 Bft) NO 54 0 min 0 W/m 19,8 C 31,9 C 4,8 km/h (1 Bft)
22.06.2017 19:40 31,9 C 31,9 C 46 % 1009,5 hPa 0,0 l/m 0,8 km/h (0 Bft) S-SO 164 0 min 0 W/m 18,8 C 31,9 C 3,2 km/h (1 Bft)
22.06.2017 19:35 32,1 C 32,1 C 45 % 1009,5 hPa 0,0 l/m 0,9 km/h (0 Bft) S-SO 164 0 min 0 W/m 18,6 C 32,1 C 3,2 km/h (1 Bft)
22.06.2017 19:30 32,1 C 32,1 C 44 % 1009,6 hPa 0,0 l/m 1,2 km/h (1 Bft) S-SO 164 0 min 0 W/m 18,3 C 32,1 C 3,2 km/h (1 Bft)
22.06.2017 19:25 32,2 C 32,2 C 44 % 1009,5 hPa 0,0 l/m 1,7 km/h (1 Bft) S-SO 164 0 min 0 W/m 18,4 C 32,2 C 3,2 km/h (1 Bft)
22.06.2017 19:20 32,2 C 32,2 C 45 % 1009,4 hPa 0,0 l/m 1,5 km/h (1 Bft) S-SO 164 0 min 0 W/m 18,7 C 32,2 C 6,4 km/h (2 Bft)
22.06.2017 19:15 32,2 C 32,2 C 44 % 1009,3 hPa 0,0 l/m 2,3 km/h (1 Bft) S-SO 164 0 min 0 W/m 18,4 C 32,2 C 6,4 km/h (2 Bft)
22.06.2017 19:10 32,2 C 32,2 C 43 % 1009,3 hPa 0,0 l/m 2,8 km/h (1 Bft) S-SO 160 0 min 0 W/m 18,0 C 32,2 C 8,0 km/h (2 Bft)
22.06.2017 19:05 32,2 C 32,1 C 45 % 1009,3 hPa 0,0 l/m 2,4 km/h (1 Bft) S-SO 162 0 min 0 W/m 18,7 C 32,2 C 8,0 km/h (2 Bft)
22.06.2017 19:00 32,1 C 31,8 C 43 % 1009,2 hPa 0,0 l/m 2,4 km/h (1 Bft) S-SO 155 0 min 0 W/m 17,9 C 32,1 C 6,4 km/h (2 Bft)
22.06.2017 18:55 31,8 C 31,7 C 46 % 1009,2 hPa 0,0 l/m 2,2 km/h (1 Bft) S-SO 160 0 min 0 W/m 18,7 C 31,8 C 6,4 km/h (2 Bft)
22.06.2017 18:50 31,7 C 31,7 C 45 % 1009,2 hPa 0,0 l/m 2,7 km/h (1 Bft) S-SO 158 0 min 0 W/m 18,3 C 31,7 C 4,8 km/h (1 Bft)
22.06.2017 18:45 31,7 C 31,7 C 45 % 1009,4 hPa 0,0 l/m 2,7 km/h (1 Bft) S-SO 157 0 min 0 W/m 18,3 C 31,7 C 8,0 km/h (2 Bft)
22.06.2017 18:40 31,7 C 31,7 C 46 % 1009,5 hPa 0,0 l/m 2,9 km/h (1 Bft) S-SO 163 0 min 0 W/m 18,6 C 31,7 C 6,4 km/h (2 Bft)
22.06.2017 18:35 31,7 C 31,7 C 45 % 1009,4 hPa 0,0 l/m 1,7 km/h (1 Bft) S-SO 165 0 min 0 W/m 18,3 C 31,7 C 3,2 km/h (1 Bft)
22.06.2017 18:30 31,8 C 31,8 C 44 % 1009,6 hPa 0,0 l/m 3,5 km/h (1 Bft) S-SO 168 0 min 0 W/m 18,0 C 31,8 C 6,4 km/h (2 Bft)
22.06.2017 18:25 32,0 C 32,0 C 44 % 1009,8 hPa 0,0 l/m 3,3 km/h (1 Bft) S-SO 167 0 min 0 W/m 18,2 C 32,0 C 6,4 km/h (2 Bft)
22.06.2017 18:20 32,2 C 32,2 C 44 % 1009,9 hPa 0,0 l/m 2,7 km/h (1 Bft) S 181 0 min 0 W/m 18,4 C 32,2 C 6,4 km/h (2 Bft)
22.06.2017 18:15 32,5 C 32,5 C 44 % 1010,0 hPa 0,0 l/m 2,2 km/h (1 Bft) S 191 0 min 0 W/m 18,6 C 32,5 C 6,4 km/h (2 Bft)
22.06.2017 18:10 32,6 C 32,6 C 43 % 1010,1 hPa 0,0 l/m 3,4 km/h (1 Bft) S-SW 207 0 min 0 W/m 18,4 C 32,6 C 6,4 km/h (2 Bft)
22.06.2017 18:05 32,6 C 32,4 C 44 % 1010,1 hPa 0,0 l/m 1,6 km/h (1 Bft) S-SW 205 0 min 0 W/m 18,7 C 32,6 C 3,2 km/h (1 Bft)
22.06.2017 18:00 32,4 C 32,2 C 42 % 1010,0 hPa 0,0 l/m 4,7 km/h (1 Bft) SW 229 0 min 0 W/m 17,8 C 32,4 C 8,0 km/h (2 Bft)
22.06.2017 17:55 32,2 C 32,0 C 43 % 1009,9 hPa 0,0 l/m 2,0 km/h (1 Bft) S-SW 198 0 min 0 W/m 18,0 C 32,2 C 6,4 km/h (2 Bft)
22.06.2017 17:50 32,0 C 31,9 C 43 % 1009,9 hPa 0,0 l/m 1,6 km/h (1 Bft) S 186 0 min 0 W/m 17,8 C 32,0 C 3,2 km/h (1 Bft)
22.06.2017 17:45 31,9 C 31,9 C 43 % 1009,8 hPa 0,0 l/m 1,2 km/h (1 Bft) S 186 0 min 0 W/m 17,7 C 31,9 C 3,2 km/h (1 Bft)
22.06.2017 17:40 31,9 C 31,9 C 43 % 1009,7 hPa 0,0 l/m 2,1 km/h (1 Bft) S 182 0 min 0 W/m 17,7 C 31,9 C 3,2 km/h (1 Bft)
22.06.2017 17:35 31,9 C 31,9 C 44 % 1009,7 hPa 0,0 l/m 2,3 km/h (1 Bft) S 182 0 min 0 W/m 18,1 C 31,9 C 4,8 km/h (1 Bft)
22.06.2017 17:30 32,0 C 32,0 C 43 % 1009,7 hPa 0,0 l/m 2,5 km/h (1 Bft) S 184 0 min 0 W/m 17,8 C 32,0 C 6,4 km/h (2 Bft)
22.06.2017 17:25 32,0 C 31,8 C 43 % 1009,8 hPa 0,0 l/m 3,4 km/h (1 Bft) S 181 0 min 0 W/m 17,8 C 32,0 C 6,4 km/h (2 Bft)
22.06.2017 17:20 31,8 C 31,8 C 42 % 1009,7 hPa 0,0 l/m 2,2 km/h (1 Bft) S-SW 194 0 min 0 W/m 17,3 C 31,8 C 4,8 km/h (1 Bft)
22.06.2017 17:15 32,0 C 32,0 C 41 % 1009,7 hPa 0,0 l/m 2,6 km/h (1 Bft) S-SO 155 0 min 0 W/m 17,1 C 32,0 C 6,4 km/h (2 Bft)
22.06.2017 17:10 32,2 C 32,2 C 41 % 1010,0 hPa 0,0 l/m 3,2 km/h (1 Bft) S-SO 165 0 min 0 W/m 17,2 C 32,2 C 6,4 km/h (2 Bft)
22.06.2017 17:05 32,3 C 32,3 C 40 % 1010,3 hPa 0,0 l/m 2,3 km/h (1 Bft) S-SW 204 0 min 0 W/m 16,9 C 32,3 C 4,8 km/h (1 Bft)
22.06.2017 17:00 32,4 C 32,4 C 40 % 1010,5 hPa 0,0 l/m 2,3 km/h (1 Bft) SW 217 0 min 0 W/m 17,0 C 32,4 C 4,8 km/h (1 Bft)
22.06.2017 16:55 32,4 C 32,4 C 39 % 1010,6 hPa 0,0 l/m 1,1 km/h (1 Bft) SW 219 0 min 0 W/m 16,6 C 32,4 C 6,4 km/h (2 Bft)
22.06.2017 16:50 32,4 C 32,4 C 38 % 1010,7 hPa 0,0 l/m 0,5 km/h (0 Bft) SW 220 0 min 0 W/m 16,2 C 32,4 C 3,2 km/h (1 Bft)
22.06.2017 16:45 32,5 C 32,5 C 38 % 1010,8 hPa 0,0 l/m 0,2 km/h (0 Bft) W-SW 250 0 min 0 W/m 16,3 C 32,5 C 1,6 km/h (1 Bft)
22.06.2017 16:40 32,6 C 32,6 C 38 % 1010,9 hPa 0,0 l/m 1,8 km/h (1 Bft) W-SW 250 0 min 0 W/m 16,4 C 32,6 C 9,7 km/h (2 Bft)
22.06.2017 16:35 32,6 C 32,6 C 38 % 1011,1 hPa 0,0 l/m 2,5 km/h (1 Bft) W 279 0 min 0 W/m 16,4 C 32,6 C 9,7 km/h (2 Bft)
22.06.2017 16:30 32,7 C 32,7 C 38 % 1011,1 hPa 0,0 l/m 4,8 km/h (1 Bft) W 279 0 min 0 W/m 16,5 C 32,7 C 11,3 km/h (2 Bft)
22.06.2017 16:25 32,9 C 32,9 C 38 % 1011,2 hPa 0,0 l/m 3,8 km/h (1 Bft) W-SW 254 0 min 0 W/m 16,7 C 32,9 C 12,9 km/h (3 Bft)
22.06.2017 16:20 33,3 C 33,3 C 37 % 1011,2 hPa 0,0 l/m 4,0 km/h (1 Bft) S 178 0 min 0 W/m 16,6 C 33,3 C 11,3 km/h (2 Bft)
22.06.2017 16:15 33,6 C 33,6 C 37 % 1011,2 hPa 0,0 l/m 2,7 km/h (1 Bft) S-SW 197 0 min 0 W/m 16,9 C 33,6 C 6,4 km/h (2 Bft)
22.06.2017 16:10 33,7 C 33,7 C 38 % 1011,3 hPa 0,0 l/m 2,9 km/h (1 Bft) S-SW 195 0 min 0 W/m 17,4 C 33,7 C 11,3 km/h (2 Bft)
22.06.2017 16:05 33,8 C 33,8 C 37 % 1011,4 hPa 0,0 l/m 2,8 km/h (1 Bft) W 275 0 min 0 W/m 17,0 C 33,8 C 8,0 km/h (2 Bft)
22.06.2017 16:00 34,2 C 34,2 C 37 % 1011,4 hPa 0,0 l/m 3,4 km/h (1 Bft) W-NW 294 0 min 0 W/m 17,4 C 34,2 C 8,0 km/h (2 Bft)
22.06.2017 15:55 34,3 C 34,3 C 38 % 1011,4 hPa 0,0 l/m 3,9 km/h (1 Bft) S-SW 200 0 min 0 W/m 17,9 C 34,3 C 8,0 km/h (2 Bft)
22.06.2017 15:50 34,6 C 34,6 C 36 % 1011,3 hPa 0,0 l/m 2,9 km/h (1 Bft) S 172 0 min 0 W/m 17,3 C 34,6 C 8,0 km/h (2 Bft)
22.06.2017 15:45 34,7 C 34,6 C 36 % 1011,3 hPa 0,0 l/m 2,7 km/h (1 Bft) SW 214 0 min 0 W/m 17,4 C 34,7 C 8,0 km/h (2 Bft)
22.06.2017 15:40 34,6 C 34,5 C 36 % 1011,2 hPa 0,0 l/m 2,9 km/h (1 Bft) S-SW 200 0 min 0 W/m 17,3 C 34,6 C 8,0 km/h (2 Bft)
22.06.2017 15:35 34,7 C 34,7 C 35 % 1011,3 hPa 0,0 l/m 5,2 km/h (1 Bft) W-SW 249 0 min 0 W/m 16,9 C 34,7 C 11,3 km/h (2 Bft)
22.06.2017 15:30 34,8 C 34,8 C 35 % 1011,4 hPa 0,0 l/m 3,0 km/h (1 Bft) NO 36 0 min 0 W/m 17,0 C 34,8 C 9,7 km/h (2 Bft)
22.06.2017 15:25 35,3 C 35,3 C 33 % 1011,5 hPa 0,0 l/m 6,0 km/h (2 Bft) NW 313 0 min 0 W/m 16,5 C 35,3 C 12,9 km/h (3 Bft)
22.06.2017 15:20 35,4 C 35,4 C 33 % 1011,4 hPa 0,0 l/m 8,2 km/h (2 Bft) S-SW 193 0 min 0 W/m 16,6 C 35,4 C 25,7 km/h (4 Bft)
22.06.2017 15:15 35,4 C 35,2 C 33 % 1011,6 hPa 0,0 l/m 8,9 km/h (2 Bft) S 169 0 min 0 W/m 16,6 C 35,4 C 19,3 km/h (3 Bft)
22.06.2017 15:10 35,2 C 35,1 C 33 % 1011,4 hPa 0,0 l/m 6,8 km/h (2 Bft) SW 221 0 min 0 W/m 16,5 C 35,2 C 19,3 km/h (3 Bft)
22.06.2017 15:05 35,2 C 34,8 C 32 % 1011,2 hPa 0,0 l/m 9,7 km/h (2 Bft) S 174 0 min 0 W/m 16,0 C 35,2 C 19,3 km/h (3 Bft)
22.06.2017 15:00 34,8 C 34,6 C 34 % 1010,9 hPa 0,0 l/m 6,9 km/h (2 Bft) SW 228 0 min 0 W/m 16,6 C 34,8 C 19,3 km/h (3 Bft)
22.06.2017 14:55 34,6 C 34,5 C 34 % 1010,9 hPa 0,0 l/m 3,5 km/h (1 Bft) S-SO 164 0 min 0 W/m 16,4 C 34,6 C 8,0 km/h (2 Bft)
22.06.2017 14:50 34,6 C 34,3 C 34 % 1011,1 hPa 0,0 l/m 2,4 km/h (1 Bft) O-SO 114 0 min 0 W/m 16,4 C 34,6 C 11,3 km/h (2 Bft)
22.06.2017 14:45 34,3 C 34,3 C 35 % 1011,3 hPa 0,0 l/m 4,2 km/h (1 Bft) W 265 0 min 0 W/m 16,6 C 34,3 C 8,0 km/h (2 Bft)
22.06.2017 14:40 34,4 C 34,3 C 34 % 1011,3 hPa 0,0 l/m 4,6 km/h (1 Bft) SW 234 0 min 0 W/m 16,2 C 34,4 C 11,3 km/h (2 Bft)
22.06.2017 14:35 34,3 C 34,3 C 35 % 1011,5 hPa 0,0 l/m 5,2 km/h (1 Bft) S-SW 206 0 min 0 W/m 16,6 C 34,3 C 11,3 km/h (2 Bft)
22.06.2017 14:30 34,3 C 34,3 C 36 % 1011,6 hPa 0,0 l/m 4,0 km/h (1 Bft) W-NW 287 0 min 0 W/m 17,0 C 34,3 C 11,3 km/h (2 Bft)
22.06.2017 14:25 34,6 C 34,6 C 34 % 1011,7 hPa 0,0 l/m 3,8 km/h (1 Bft) W 278 0 min 0 W/m 16,4 C 34,6 C 12,9 km/h (3 Bft)
22.06.2017 14:20 35,1 C 35,1 C 33 % 1011,8 hPa 0,0 l/m 4,7 km/h (1 Bft) W 259 0 min 0 W/m 16,4 C 35,1 C 12,9 km/h (3 Bft)
22.06.2017 14:15 35,7 C 35,6 C 32 % 1011,9 hPa 0,0 l/m 4,7 km/h (1 Bft) W-SW 247 0 min 0 W/m 16,4 C 35,7 C 12,9 km/h (3 Bft)
22.06.2017 14:10 35,6 C 35,3 C 34 % 1011,9 hPa 0,0 l/m 3,9 km/h (1 Bft) S-SW 205 0 min 0 W/m 17,3 C 35,6 C 9,7 km/h (2 Bft)
22.06.2017 14:05 35,3 C 34,9 C 33 % 1012,0 hPa 0,0 l/m 4,2 km/h (1 Bft) NO 34 0 min 0 W/m 16,5 C 35,3 C 11,3 km/h (2 Bft)
22.06.2017 14:00 34,9 C 34,8 C 34 % 1012,2 hPa 0,0 l/m 4,4 km/h (1 Bft) W-NW 293 0 min 0 W/m 16,7 C 34,9 C 14,5 km/h (3 Bft)
22.06.2017 13:55 34,9 C 34,9 C 32 % 1012,2 hPa 0,0 l/m 8,4 km/h (2 Bft) W 261 0 min 0 W/m 15,7 C 34,9 C 16,1 km/h (3 Bft)
22.06.2017 13:50 35,4 C 35,4 C 32 % 1012,2 hPa 0,0 l/m 3,7 km/h (1 Bft) W-NW 290 0 min 0 W/m 16,1 C 35,4 C 12,9 km/h (3 Bft)
22.06.2017 13:45 35,4 C 35,2 C 32 % 1012,3 hPa 0,0 l/m 3,5 km/h (1 Bft) S 185 0 min 0 W/m 16,1 C 35,4 C 9,7 km/h (2 Bft)
22.06.2017 13:40 35,3 C 35,3 C 31 % 1012,3 hPa 0,0 l/m 6,7 km/h (2 Bft) S 188 0 min 0 W/m 15,6 C 35,3 C 12,9 km/h (3 Bft)
22.06.2017 13:35 35,7 C 35,3 C 32 % 1012,4 hPa 0,0 l/m 9,4 km/h (2 Bft) SW 216 0 min 0 W/m 16,4 C 35,7 C 17,7 km/h (3 Bft)
22.06.2017 13:30 35,3 C 34,9 C 32 % 1012,3 hPa 0,0 l/m 6,0 km/h (2 Bft) S-SW 207 0 min 0 W/m 16,1 C 35,3 C 14,5 km/h (3 Bft)
22.06.2017 13:25 35,1 C 35,1 C 31 % 1012,4 hPa 0,0 l/m 5,3 km/h (1 Bft) S-SW 193 0 min 0 W/m 15,4 C 35,1 C 12,9 km/h (3 Bft)
22.06.2017 13:20 35,4 C 35,4 C 31 % 1012,6 hPa 0,0 l/m 7,3 km/h (2 Bft) SW 215 0 min 0 W/m 15,6 C 35,4 C 16,1 km/h (3 Bft)
22.06.2017 13:15 35,5 C 35,1 C 33 % 1012,5 hPa 0,0 l/m 6,6 km/h (2 Bft) S 180 0 min 0 W/m 16,7 C 35,5 C 14,5 km/h (3 Bft)
22.06.2017 13:10 35,1 C 34,3 C 35 % 1012,5 hPa 0,0 l/m 3,3 km/h (1 Bft) S 171 0 min 0 W/m 17,3 C 35,1 C 9,7 km/h (2 Bft)
22.06.2017 13:05 34,3 C 34,3 C 34 % 1012,6 hPa 0,0 l/m 4,7 km/h (1 Bft) S-SW 203 0 min 0 W/m 16,1 C 34,3 C 11,3 km/h (2 Bft)
22.06.2017 13:00 34,6 C 34,6 C 34 % 1012,6 hPa 0,0 l/m 4,2 km/h (1 Bft) S-SW 206 0 min 0 W/m 16,4 C 34,6 C 11,3 km/h (2 Bft)
22.06.2017 12:55 34,7 C 34,3 C 34 % 1012,6 hPa 0,0 l/m 4,4 km/h (1 Bft) SO 144 0 min 0 W/m 16,5 C 34,7 C 12,9 km/h (3 Bft)
22.06.2017 12:50 34,4 C 34,4 C 34 % 1012,7 hPa 0,0 l/m 5,5 km/h (1 Bft) SO 134 0 min 0 W/m 16,2 C 34,4 C 12,9 km/h (3 Bft)
22.06.2017 12:45 34,6 C 34,5 C 35 % 1012,7 hPa 0,0 l/m 8,2 km/h (2 Bft) S 175 0 min 0 W/m 16,9 C 34,6 C 14,5 km/h (3 Bft)
22.06.2017 12:40 34,5 C 34,2 C 35 % 1012,8 hPa 0,0 l/m 2,7 km/h (1 Bft) S 182 0 min 0 W/m 16,8 C 34,5 C 8,0 km/h (2 Bft)
22.06.2017 12:35 34,2 C 33,8 C 35 % 1012,9 hPa 0,0 l/m 6,5 km/h (2 Bft) NW 313 0 min 0 W/m 16,5 C 34,2 C 16,1 km/h (3 Bft)
22.06.2017 12:30 33,8 C 33,6 C 35 % 1012,9 hPa 0,0 l/m 5,6 km/h (1 Bft) S-SO 149 0 min 0 W/m 16,2 C 33,8 C 14,5 km/h (3 Bft)
22.06.2017 12:25 33,8 C 33,8 C 36 % 1013,0 hPa 0,0 l/m 5,5 km/h (1 Bft) SW 225 0 min 0 W/m 16,6 C 33,8 C 11,3 km/h (2 Bft)
22.06.2017 12:20 34,2 C 34,2 C 35 % 1013,1 hPa 0,0 l/m 8,0 km/h (2 Bft) S-SO 163 0 min 0 W/m 16,5 C 34,2 C 12,9 km/h (3 Bft)
22.06.2017 12:15 34,3 C 33,8 C 36 % 1013,1 hPa 0,0 l/m 6,7 km/h (2 Bft) SW 217 0 min 0 W/m 17,0 C 34,3 C 14,5 km/h (3 Bft)
22.06.2017 12:10 33,8 C 33,4 C 36 % 1013,1 hPa 0,0 l/m 3,2 km/h (1 Bft) NW 313 0 min 0 W/m 16,6 C 33,8 C 9,7 km/h (2 Bft)
22.06.2017 12:05 33,4 C 33,3 C 37 % 1013,1 hPa 0,0 l/m 4,5 km/h (1 Bft) SW 221 0 min 0 W/m 16,7 C 33,4 C 9,7 km/h (2 Bft)
22.06.2017 12:00 33,7 C 33,7 C 35 % 1013,1 hPa 0,0 l/m 2,9 km/h (1 Bft) NO 44 0 min 0 W/m 16,1 C 33,7 C 9,7 km/h (2 Bft)
22.06.2017 11:55 33,8 C 33,8 C 35 % 1013,2 hPa 0,0 l/m 2,1 km/h (1 Bft) SO 139 0 min 0 W/m 16,2 C 33,8 C 4,8 km/h (1 Bft)
22.06.2017 11:50 33,9 C 33,8 C 36 % 1013,2 hPa 0,0 l/m 5,9 km/h (2 Bft) S-SW 194 0 min 0 W/m 16,7 C 33,9 C 12,9 km/h (3 Bft)
22.06.2017 11:45 33,8 C 33,6 C 36 % 1013,3 hPa 0,0 l/m 4,9 km/h (1 Bft) S-SW 211 0 min 0 W/m 16,6 C 33,8 C 11,3 km/h (2 Bft)
22.06.2017 11:40 33,6 C 33,4 C 38 % 1013,2 hPa 0,0 l/m 4,0 km/h (1 Bft) SW 228 0 min 0 W/m 17,3 C 33,6 C 9,7 km/h (2 Bft)
22.06.2017 11:35 33,4 C 32,9 C 38 % 1013,2 hPa 0,0 l/m 4,1 km/h (1 Bft) S-SO 155 0 min 0 W/m 17,1 C 33,4 C 9,7 km/h (2 Bft)
22.06.2017 11:30 32,9 C 32,6 C 42 % 1013,2 hPa 0,0 l/m 2,9 km/h (1 Bft) S-SW 199 0 min 0 W/m 18,3 C 32,9 C 8,0 km/h (2 Bft)
22.06.2017 11:25 32,6 C 32,5 C 41 % 1013,2 hPa 0,0 l/m 5,1 km/h (1 Bft) S-SO 165 0 min 0 W/m 17,6 C 32,6 C 11,3 km/h (2 Bft)
22.06.2017 11:20 32,5 C 32,1 C 43 % 1013,3 hPa 0,0 l/m 4,8 km/h (1 Bft) SO 142 0 min 0 W/m 18,3 C 32,5 C 12,9 km/h (3 Bft)
22.06.2017 11:15 32,2 C 31,8 C 42 % 1013,3 hPa 0,0 l/m 2,9 km/h (1 Bft) SO 134 0 min 0 W/m 17,6 C 32,2 C 11,3 km/h (2 Bft)
22.06.2017 11:10 31,8 C 31,8 C 43 % 1013,4 hPa 0,0 l/m 5,1 km/h (1 Bft) S 180 0 min 0 W/m 17,6 C 31,8 C 9,7 km/h (2 Bft)
22.06.2017 11:05 31,9 C 31,9 C 43 % 1013,4 hPa 0,0 l/m 4,7 km/h (1 Bft) S-SO 149 0 min 0 W/m 17,7 C 31,9 C 11,3 km/h (2 Bft)
22.06.2017 11:00 32,1 C 31,7 C 43 % 1013,4 hPa 0,0 l/m 4,7 km/h (1 Bft) O 101 0 min 0 W/m 17,9 C 32,1 C 12,9 km/h (3 Bft)
22.06.2017 10:55 31,7 C 31,7 C 43 % 1013,4 hPa 0,0 l/m 4,4 km/h (1 Bft) S-SW 194 0 min 0 W/m 17,6 C 31,7 C 9,7 km/h (2 Bft)
22.06.2017 10:50 31,9 C 31,3 C 43 % 1013,4 hPa 0,0 l/m 4,4 km/h (1 Bft) O-SO 118 0 min 0 W/m 17,7 C 31,9 C 9,7 km/h (2 Bft)
22.06.2017 10:45 31,3 C 31,1 C 44 % 1013,5 hPa 0,0 l/m 4,6 km/h (1 Bft) S 183 0 min 0 W/m 17,6 C 31,3 C 9,7 km/h (2 Bft)
22.06.2017 10:40 31,2 C 31,2 C 44 % 1013,5 hPa 0,0 l/m 6,9 km/h (2 Bft) SO 139 0 min 0 W/m 17,5 C 31,2 C 14,5 km/h (3 Bft)
22.06.2017 10:35 31,7 C 31,4 C 45 % 1013,6 hPa 0,0 l/m 4,7 km/h (1 Bft) S-SO 164 0 min 0 W/m 18,3 C 31,7 C 9,7 km/h (2 Bft)
22.06.2017 10:30 31,4 C 31,0 C 44 % 1013,5 hPa 0,0 l/m 6,1 km/h (2 Bft) SW 219 0 min 0 W/m 17,6 C 31,4 C 11,3 km/h (2 Bft)
22.06.2017 10:25 31,0 C 30,7 C 46 % 1013,6 hPa 0,0 l/m 3,8 km/h (1 Bft) S-SW 193 0 min 0 W/m 18,0 C 31,0 C 9,7 km/h (2 Bft)
22.06.2017 10:20 30,9 C 30,8 C 46 % 1013,6 hPa 0,0 l/m 5,7 km/h (1 Bft) S-SW 206 0 min 0 W/m 17,9 C 30,9 C 11,3 km/h (2 Bft)
22.06.2017 10:15 30,8 C 30,7 C 46 % 1013,6 hPa 0,0 l/m 5,5 km/h (1 Bft) S 184 0 min 0 W/m 17,8 C 30,8 C 9,7 km/h (2 Bft)
22.06.2017 10:10 30,7 C 30,3 C 47 % 1013,6 hPa 0,0 l/m 3,4 km/h (1 Bft) S-SW 194 0 min 0 W/m 18,1 C 30,7 C 4,8 km/h (1 Bft)
22.06.2017 10:05 30,3 C 30,3 C 47 % 1013,7 hPa 0,0 l/m 4,8 km/h (1 Bft) S 180 0 min 0 W/m 17,7 C 30,3 C 9,7 km/h (2 Bft)
22.06.2017 10:00 30,6 C 30,3 C 46 % 1013,7 hPa 0,0 l/m 4,8 km/h (1 Bft) S-SW 202 0 min 0 W/m 17,6 C 30,6 C 14,5 km/h (3 Bft)
22.06.2017 09:55 30,3 C 30,1 C 47 % 1013,7 hPa 0,0 l/m 6,4 km/h (2 Bft) S-SW 202 0 min 0 W/m 17,7 C 30,3 C 9,7 km/h (2 Bft)
22.06.2017 09:50 30,1 C 29,6 C 48 % 1013,8 hPa 0,0 l/m 3,2 km/h (1 Bft) S-SW 202 0 min 0 W/m 17,9 C 30,1 C 9,7 km/h (2 Bft)
22.06.2017 09:45 29,6 C 29,4 C 49 % 1013,8 hPa 0,0 l/m 3,2 km/h (1 Bft) S-SO 157 0 min 0 W/m 17,7 C 29,6 C 6,4 km/h (2 Bft)
22.06.2017 09:40 29,4 C 29,2 C 50 % 1013,9 hPa 0,0 l/m 3,2 km/h (1 Bft) S 180 0 min 0 W/m 17,9 C 29,4 C 8,0 km/h (2 Bft)
22.06.2017 09:35 29,4 C 28,9 C 49 % 1013,9 hPa 0,0 l/m 4,8 km/h (1 Bft) S-SW 202 0 min 0 W/m 17,5 C 29,4 C 8,0 km/h (2 Bft)
22.06.2017 09:30 29,0 C 28,9 C 50 % 1013,9 hPa 0,0 l/m 4,8 km/h (1 Bft) S 180 0 min 0 W/m 17,5 C 29,0 C 8,0 km/h (2 Bft)
22.06.2017 09:25 28,9 C 28,4 C 51 % 1013,9 hPa 0,0 l/m 4,8 km/h (1 Bft) S-SO 157 0 min 0 W/m 17,7 C 28,9 C 11,3 km/h (2 Bft)
22.06.2017 09:20 28,4 C 28,1 C 54 % 1013,9 hPa 0,0 l/m 1,6 km/h (1 Bft) S-SO 157 0 min 0 W/m 18,2 C 28,4 C 6,4 km/h (2 Bft)
22.06.2017 09:15 28,2 C 28,2 C 52 % 1014,0 hPa 0,0 l/m 3,2 km/h (1 Bft) S 180 0 min 0 W/m 17,4 C 28,2 C 6,4 km/h (2 Bft)
22.06.2017 09:10 28,6 C 28,3 C 52 % 1014,0 hPa 0,0 l/m 4,8 km/h (1 Bft) S-SO 157 0 min 0 W/m 17,8 C 28,6 C 9,7 km/h (2 Bft)
22.06.2017 09:05 28,4 C 28,3 C 53 % 1013,9 hPa 0,0 l/m 3,2 km/h (1 Bft) S 180 0 min 0 W/m 17,9 C 28,4 C 8,0 km/h (2 Bft)
22.06.2017 09:00 28,3 C 28,3 C 52 % 1014,0 hPa 0,0 l/m 4,8 km/h (1 Bft) S 180 0 min 0 W/m 17,5 C 28,3 C 8,0 km/h (2 Bft)
22.06.2017 08:55 28,3 C 27,9 C 53 % 1013,9 hPa 0,0 l/m 3,2 km/h (1 Bft) S-SO 157 0 min 0 W/m 17,8 C 28,3 C 6,4 km/h (2 Bft)
22.06.2017 08:50 27,9 C 27,3 C 54 % 1013,9 hPa 0,0 l/m 3,2 km/h (1 Bft) S 180 0 min 0 W/m 17,7 C 27,9 C 4,8 km/h (1 Bft)
22.06.2017 08:45 27,3 C 26,8 C 56 % 1013,9 hPa 0,0 l/m 1,6 km/h (1 Bft) S 180 0 min 0 W/m 17,7 C 27,3 C 4,8 km/h (1 Bft)
22.06.2017 08:40 26,8 C 26,7 C 57 % 1014,0 hPa 0,0 l/m 3,2 km/h (1 Bft) S 180 0 min 0 W/m 17,6 C 26,8 C 4,8 km/h (1 Bft)
22.06.2017 08:35 26,8 C 26,5 C 57 % 1014,0 hPa 0,0 l/m 3,0 km/h (1 Bft) S 185 0 min 0 W/m 17,6 C 26,8 C 6,4 km/h (2 Bft)
22.06.2017 08:30 26,5 C 26,1 C 58 % 1013,9 hPa 0,0 l/m 4,5 km/h (1 Bft) S 189 0 min 0 W/m 17,5 C 26,5 C 8,0 km/h (2 Bft)
22.06.2017 08:25 26,1 C 25,9 C 60 % 1013,9 hPa 0,0 l/m 3,7 km/h (1 Bft) S 188 0 min 0 W/m 17,7 C 26,1 C 8,0 km/h (2 Bft)
22.06.2017 08:20 25,9 C 25,4 C 61 % 1013,9 hPa 0,0 l/m 3,5 km/h (1 Bft) S 188 0 min 0 W/m 17,8 C 25,9 C 6,4 km/h (2 Bft)
22.06.2017 08:15 25,4 C 24,5 C 64 % 1013,9 hPa 0,0 l/m 3,6 km/h (1 Bft) S 181 0 min 0 W/m 18,1 C 25,4 C 8,0 km/h (2 Bft)
22.06.2017 08:10 24,5 C 23,3 C 67 % 1013,9 hPa 0,0 l/m 3,6 km/h (1 Bft) S-SW 202 0 min 0 W/m 18,0 C 24,5 C 8,0 km/h (2 Bft)
22.06.2017 08:05 23,3 C 22,3 C 71 % 1013,9 hPa 0,0 l/m 3,2 km/h (1 Bft) S 185 0 min 0 W/m 17,7 C 23,3 C 6,4 km/h (2 Bft)
22.06.2017 08:00 22,3 C 21,9 C 75 % 1013,9 hPa 0,0 l/m 1,8 km/h (1 Bft) S 190 0 min 0 W/m 17,6 C 22,3 C 4,8 km/h (1 Bft)
22.06.2017 07:55 21,9 C 21,4 C 76 % 1013,9 hPa 0,0 l/m 2,1 km/h (1 Bft) S 188 0 min 0 W/m 17,5 C 21,9 C 4,8 km/h (1 Bft)
22.06.2017 07:50 21,4 C 21,0 C 78 % 1013,9 hPa 0,0 l/m 2,4 km/h (1 Bft) S-SW 195 0 min 0 W/m 17,4 C 21,4 C 4,8 km/h (1 Bft)
22.06.2017 07:45 21,0 C 20,6 C 80 % 1013,9 hPa 0,0 l/m 2,8 km/h (1 Bft) S 189 0 min 0 W/m 17,4 C 21,0 C 4,8 km/h (1 Bft)
22.06.2017 07:40 20,6 C 20,3 C 81 % 1013,9 hPa 0,0 l/m 0,2 km/h (0 Bft) N-NO 12 0 min 0 W/m 17,2 C 20,6 C 3,2 km/h (1 Bft)
22.06.2017 07:35 20,3 C 20,0 C 81 % 1013,9 hPa 0,0 l/m 0,0 km/h (0 Bft) N-NO 12 0 min 0 W/m 16,9 C 20,3 C 0,0 km/h (0 Bft)
22.06.2017 07:30 20,0 C 19,8 C 82 % 1013,8 hPa 0,0 l/m 0,0 km/h (0 Bft) N-NO 12 0 min 0 W/m 16,8 C 20,0 C 1,6 km/h (1 Bft)
22.06.2017 07:25 19,8 C 19,6 C 83 % 1013,8 hPa 0,0 l/m 0,1 km/h (0 Bft) N-NO 12 0 min 0 W/m 16,8 C 19,8 C 1,6 km/h (1 Bft)
22.06.2017 07:20 19,6 C 19,3 C 83 % 1013,9 hPa 0,0 l/m 1,7 km/h (1 Bft) N-NO 12 0 min 0 W/m 16,6 C 19,6 C 3,2 km/h (1 Bft)
22.06.2017 07:15 19,3 C 19,1 C 84 % 1013,8 hPa 0,0 l/m 1,5 km/h (1 Bft) N-NO 12 0 min 0 W/m 16,5 C 19,3 C 4,8 km/h (1 Bft)
22.06.2017 07:10 19,1 C 18,9 C 84 % 1013,7 hPa 0,0 l/m 0,1 km/h (0 Bft) N-NO 12 0 min 0 W/m 16,3 C 19,1 C 1,6 km/h (1 Bft)
22.06.2017 07:05 18,9 C 18,7 C 85 % 1013,7 hPa 0,0 l/m 0,2 km/h (0 Bft) N-NO 12 0 min 0 W/m 16,3 C 18,9 C 1,6 km/h (1 Bft)
22.06.2017 07:00 18,7 C 18,6 C 86 % 1013,8 hPa 0,0 l/m 1,0 km/h (0 Bft) N-NO 12 0 min 0 W/m 16,3 C 18,7 C 3,2 km/h (1 Bft)
22.06.2017 06:55 18,6 C 18,4 C 86 % 1013,8 hPa 0,0 l/m 0,4 km/h (0 Bft) N-NO 12 0 min 0 W/m 16,2 C 18,6 C 3,2 km/h (1 Bft)
22.06.2017 06:50 18,4 C 18,3 C 87 % 1013,8 hPa 0,0 l/m 0,0 km/h (0 Bft) N-NO 12 0 min 0 W/m 16,2 C 18,4 C 1,6 km/h (1 Bft)
22.06.2017 06:45 18,3 C 18,2 C 86 % 1013,8 hPa 0,0 l/m 0,1 km/h (0 Bft) N-NO 12 0 min 0 W/m 15,9 C 18,3 C 1,6 km/h (1 Bft)
22.06.2017 06:40 18,2 C 18,1 C 87 % 1013,9 hPa 0,0 l/m 0,3 km/h (0 Bft) N-NO 12 0 min 0 W/m 16,0 C 18,2 C 1,6 km/h (1 Bft)
22.06.2017 06:35 18,1 C 18,1 C 87 % 1013,9 hPa 0,0 l/m 0,4 km/h (0 Bft) N-NO 12 0 min 0 W/m 15,9 C 18,1 C 1,6 km/h (1 Bft)
22.06.2017 06:30 18,1 C 18,0 C 87 % 1013,8 hPa 0,0 l/m 0,0 km/h (0 Bft) N-NO 12 0 min 0 W/m 15,9 C 18,1 C 1,6 km/h (1 Bft)
22.06.2017 06:25 18,0 C 17,9 C 87 % 1013,9 hPa 0,0 l/m 0,0 km/h (0 Bft) N-NO 12 0 min 0 W/m 15,8 C 18,0 C 0,0 km/h (0 Bft)
22.06.2017 06:20 17,9 C 17,9 C 87 % 1014,0 hPa 0,0 l/m 0,2 km/h (0 Bft) N-NO 12 0 min 0 W/m 15,7 C 17,9 C 1,6 km/h (1 Bft)
22.06.2017 06:15 17,9 C 17,8 C 87 % 1013,9 hPa 0,0 l/m 0,7 km/h (0 Bft) N-NO 12 0 min 0 W/m 15,7 C 17,9 C 1,6 km/h (1 Bft)
22.06.2017 06:10 17,8 C 17,7 C 88 % 1013,9 hPa 0,0 l/m 0,2 km/h (0 Bft) N-NO 12 0 min 0 W/m 15,8 C 17,8 C 1,6 km/h (1 Bft)
22.06.2017 06:05 17,7 C 17,7 C 87 % 1013,9 hPa 0,0 l/m 1,0 km/h (0 Bft) N-NO 12 0 min 0 W/m 15,5 C 17,7 C 3,2 km/h (1 Bft)
22.06.2017 06:00 17,7 C 17,7 C 87 % 1013,9 hPa 0,0 l/m 2,1 km/h (1 Bft) N-NO 12 0 min 0 W/m 15,5 C 17,7 C 4,8 km/h (1 Bft)
22.06.2017 05:55 17,7 C 17,7 C 87 % 1013,8 hPa 0,0 l/m 0,8 km/h (0 Bft) N-NO 12 0 min 0 W/m 15,5 C 17,7 C 4,8 km/h (1 Bft)
22.06.2017 05:50 17,7 C 17,7 C 87 % 1013,8 hPa 0,0 l/m 1,2 km/h (1 Bft) N-NO 12 0 min 0 W/m 15,5 C 17,7 C 3,2 km/h (1 Bft)
22.06.2017 05:45 17,7 C 17,7 C 87 % 1013,8 hPa 0,0 l/m 0,6 km/h (0 Bft) N-NO 12 0 min 0 W/m 15,5 C 17,7 C 3,2 km/h (1 Bft)
22.06.2017 05:40 17,7 C 17,7 C 87 % 1013,9 hPa 0,0 l/m 1,4 km/h (1 Bft) N-NO 12 0 min 0 W/m 15,5 C 17,7 C 3,2 km/h (1 Bft)
22.06.2017 05:35 17,7 C 17,7 C 87 % 1013,8 hPa 0,0 l/m 1,5 km/h (1 Bft) N-NO 12 0 min 0 W/m 15,5 C 17,7 C 3,2 km/h (1 Bft)
22.06.2017 05:30 17,7 C 17,7 C 87 % 1013,9 hPa 0,0 l/m 1,3 km/h (1 Bft) N-NO 12 0 min 0 W/m 15,5 C 17,7 C 3,2 km/h (1 Bft)
22.06.2017 05:25 17,8 C 17,8 C 86 % 1013,9 hPa 0,0 l/m 1,4 km/h (1 Bft) N-NO 12 0 min 0 W/m 15,4 C 17,8 C 4,8 km/h (1 Bft)
22.06.2017 05:20 17,8 C 17,8 C 86 % 1013,9 hPa 0,0 l/m 1,6 km/h (1 Bft) N 11 0 min 0 W/m 15,4 C 17,8 C 3,2 km/h (1 Bft)
22.06.2017 05:15 17,9 C 17,9 C 87 % 1013,9 hPa 0,0 l/m 0,9 km/h (0 Bft) N 11 0 min 0 W/m 15,7 C 17,9 C 3,2 km/h (1 Bft)
22.06.2017 05:10 17,9 C 17,9 C 87 % 1013,9 hPa 0,0 l/m 0,5 km/h (0 Bft) N 11 0 min 0 W/m 15,7 C 17,9 C 1,6 km/h (1 Bft)
22.06.2017 05:05 18,0 C 18,0 C 87 % 1013,8 hPa 0,0 l/m 1,4 km/h (1 Bft) N 11 0 min 0 W/m 15,8 C 18,0 C 3,2 km/h (1 Bft)
22.06.2017 05:00 18,1 C 18,1 C 86 % 1013,8 hPa 0,0 l/m 1,1 km/h (1 Bft) N 11 0 min 0 W/m 15,7 C 18,1 C 3,2 km/h (1 Bft)
22.06.2017 04:55 18,2 C 18,2 C 86 % 1013,8 hPa 0,0 l/m 0,4 km/h (0 Bft) N 11 0 min 0 W/m 15,8 C 18,2 C 3,2 km/h (1 Bft)
22.06.2017 04:50 18,3 C 18,3 C 86 % 1013,7 hPa 0,0 l/m 0,9 km/h (0 Bft) N 11 0 min 0 W/m 15,9 C 18,3 C 3,2 km/h (1 Bft)
22.06.2017 04:45 18,4 C 18,4 C 86 % 1013,7 hPa 0,0 l/m 0,7 km/h (0 Bft) N 11 0 min 0 W/m 16,0 C 18,4 C 3,2 km/h (1 Bft)
22.06.2017 04:40 18,4 C 18,4 C 85 % 1013,7 hPa 0,0 l/m 0,0 km/h (0 Bft) N 11 0 min 0 W/m 15,8 C 18,4 C 0,0 km/h (0 Bft)
22.06.2017 04:35 18,4 C 18,4 C 85 % 1013,6 hPa 0,0 l/m 0,0 km/h (0 Bft) N 11 0 min 0 W/m 15,8 C 18,4 C 0,0 km/h (0 Bft)
22.06.2017 04:30 18,6 C 18,5 C 85 % 1013,6 hPa 0,0 l/m 0,0 km/h (0 Bft) N 11 0 min 0 W/m 16,0 C 18,6 C 0,0 km/h (0 Bft)
22.06.2017 04:25 18,6 C 18,6 C 84 % 1013,5 hPa 0,0 l/m 0,0 km/h (0 Bft) N 11 0 min 0 W/m 15,8 C 18,6 C 0,0 km/h (0 Bft)
22.06.2017 04:20 18,7 C 18,7 C 84 % 1013,5 hPa 0,0 l/m 0,0 km/h (0 Bft) N 11 0 min 0 W/m 15,9 C 18,7 C 0,0 km/h (0 Bft)
22.06.2017 04:15 18,7 C 18,7 C 84 % 1013,5 hPa 0,0 l/m 0,0 km/h (0 Bft) N 11 0 min 0 W/m 15,9 C 18,7 C 0,0 km/h (0 Bft)
22.06.2017 04:10 18,8 C 18,8 C 84 % 1013,5 hPa 0,0 l/m 0,0 km/h (0 Bft) N 11 0 min 0 W/m 16,0 C 18,8 C 0,0 km/h (0 Bft)
22.06.2017 04:05 18,8 C 18,8 C 84 % 1013,5 hPa 0,0 l/m 0,0 km/h (0 Bft) N 11 0 min 0 W/m 16,0 C 18,8 C 0,0 km/h (0 Bft)
22.06.2017 04:00 18,9 C 18,9 C 84 % 1013,5 hPa 0,0 l/m 0,0 km/h (0 Bft) N 11 0 min 0 W/m 16,1 C 18,9 C 0,0 km/h (0 Bft)
22.06.2017 03:55 19,0 C 19,0 C 83 % 1013,6 hPa 0,0 l/m 0,0 km/h (0 Bft) N 11 0 min 0 W/m 16,0 C 19,0 C 0,0 km/h (0 Bft)
22.06.2017 03:50 19,1 C 19,1 C 83 % 1013,6 hPa 0,0 l/m 0,0 km/h (0 Bft) N 11 0 min 0 W/m 16,1 C 19,1 C 0,0 km/h (0 Bft)
22.06.2017 03:45 19,2 C 19,2 C 83 % 1013,6 hPa 0,0 l/m 0,0 km/h (0 Bft) N 11 0 min 0 W/m 16,2 C 19,2 C 0,0 km/h (0 Bft)
22.06.2017 03:40 19,2 C 19,2 C 82 % 1013,6 hPa 0,0 l/m 0,0 km/h (0 Bft) N 11 0 min 0 W/m 16,0 C 19,2 C 0,0 km/h (0 Bft)
22.06.2017 03:35 19,3 C 19,3 C 82 % 1013,7 hPa 0,0 l/m 0,0 km/h (0 Bft) N 11 0 min 0 W/m 16,1 C 19,3 C 0,0 km/h (0 Bft)
22.06.2017 03:30 19,4 C 19,4 C 82 % 1013,7 hPa 0,0 l/m 0,0 km/h (0 Bft) N 11 0 min 0 W/m 16,2 C 19,4 C 0,0 km/h (0 Bft)
22.06.2017 03:25 19,4 C 19,4 C 82 % 1013,7 hPa 0,0 l/m 0,3 km/h (0 Bft) N 11 0 min 0 W/m 16,2 C 19,4 C 3,2 km/h (1 Bft)
22.06.2017 03:20 19,5 C 19,5 C 81 % 1013,6 hPa 0,0 l/m 1,1 km/h (1 Bft) N 11 0 min 0 W/m 16,1 C 19,5 C 3,2 km/h (1 Bft)
22.06.2017 03:15 19,6 C 19,6 C 81 % 1013,6 hPa 0,0 l/m 0,0 km/h (0 Bft) N 11 0 min 0 W/m 16,2 C 19,6 C 0,0 km/h (0 Bft)
22.06.2017 03:10 19,6 C 19,6 C 81 % 1013,6 hPa 0,0 l/m 0,0 km/h (0 Bft) N 11 0 min 0 W/m 16,2 C 19,6 C 1,6 km/h (1 Bft)
22.06.2017 03:05 19,7 C 19,7 C 81 % 1013,7 hPa 0,0 l/m 0,1 km/h (0 Bft) N 11 0 min 0 W/m 16,3 C 19,7 C 1,6 km/h (1 Bft)
22.06.2017 03:00 19,7 C 19,7 C 81 % 1013,7 hPa 0,0 l/m 1,6 km/h (1 Bft) N 11 0 min 0 W/m 16,3 C 19,7 C 3,2 km/h (1 Bft)
22.06.2017 02:55 19,8 C 19,8 C 81 % 1013,7 hPa 0,0 l/m 1,4 km/h (1 Bft) N 11 0 min 0 W/m 16,4 C 19,8 C 3,2 km/h (1 Bft)
22.06.2017 02:50 19,8 C 19,8 C 81 % 1013,8 hPa 0,0 l/m 0,8 km/h (0 Bft) N 11 0 min 0 W/m 16,4 C 19,8 C 3,2 km/h (1 Bft)
22.06.2017 02:45 19,8 C 19,8 C 81 % 1013,7 hPa 0,0 l/m 0,5 km/h (0 Bft) N 11 0 min 0 W/m 16,4 C 19,8 C 3,2 km/h (1 Bft)
22.06.2017 02:40 19,9 C 19,9 C 80 % 1013,8 hPa 0,0 l/m 1,3 km/h (1 Bft) N 11 0 min 0 W/m 16,3 C 19,9 C 3,2 km/h (1 Bft)
22.06.2017 02:35 20,0 C 20,0 C 80 % 1013,8 hPa 0,0 l/m 2,5 km/h (1 Bft) N 11 0 min 0 W/m 16,4 C 20,0 C 4,8 km/h (1 Bft)
22.06.2017 02:30 20,1 C 20,1 C 80 % 1013,9 hPa 0,0 l/m 1,6 km/h (1 Bft) N 11 0 min 0 W/m 16,5 C 20,1 C 4,8 km/h (1 Bft)
22.06.2017 02:25 20,1 C 20,1 C 80 % 1013,9 hPa 0,0 l/m 0,3 km/h (0 Bft) N 11 0 min 0 W/m 16,5 C 20,1 C 3,2 km/h (1 Bft)
22.06.2017 02:20 20,2 C 20,2 C 80 % 1013,9 hPa 0,0 l/m 1,5 km/h (1 Bft) N 11 0 min 0 W/m 16,6 C 20,2 C 3,2 km/h (1 Bft)
22.06.2017 02:15 20,2 C 20,2 C 80 % 1013,9 hPa 0,0 l/m 1,5 km/h (1 Bft) N 11 0 min 0 W/m 16,6 C 20,2 C 3,2 km/h (1 Bft)
22.06.2017 02:10 20,2 C 20,2 C 79 % 1013,9 hPa 0,0 l/m 2,3 km/h (1 Bft) N 11 0 min 0 W/m 16,4 C 20,2 C 4,8 km/h (1 Bft)
22.06.2017 02:05 20,3 C 20,3 C 79 % 1013,9 hPa 0,0 l/m 1,4 km/h (1 Bft) N 11 0 min 0 W/m 16,5 C 20,3 C 3,2 km/h (1 Bft)
22.06.2017 02:00 20,4 C 20,4 C 79 % 1014,0 hPa 0,0 l/m 2,3 km/h (1 Bft) N 11 0 min 0 W/m 16,6 C 20,4 C 4,8 km/h (1 Bft)
22.06.2017 01:55 20,4 C 20,4 C 79 % 1013,9 hPa 0,0 l/m 1,8 km/h (1 Bft) N 11 0 min 0 W/m 16,6 C 20,4 C 3,2 km/h (1 Bft)
22.06.2017 01:50 20,5 C 20,5 C 79 % 1014,0 hPa 0,0 l/m 2,0 km/h (1 Bft) N 11 0 min 0 W/m 16,7 C 20,5 C 4,8 km/h (1 Bft)
22.06.2017 01:45 20,6 C 20,6 C 79 % 1013,9 hPa 0,0 l/m 0,8 km/h (0 Bft) N 11 0 min 0 W/m 16,8 C 20,6 C 3,2 km/h (1 Bft)
22.06.2017 01:40 20,6 C 20,6 C 79 % 1013,9 hPa 0,0 l/m 3,2 km/h (1 Bft) N 11 0 min 0 W/m 16,8 C 20,6 C 6,4 km/h (2 Bft)
22.06.2017 01:35 20,7 C 20,7 C 78 % 1014,0 hPa 0,0 l/m 3,9 km/h (1 Bft) N 9 0 min 0 W/m 16,7 C 20,7 C 6,4 km/h (2 Bft)
22.06.2017 01:30 20,8 C 20,8 C 78 % 1014,0 hPa 0,0 l/m 0,9 km/h (0 Bft) N-NO 19 0 min 0 W/m 16,8 C 20,8 C 3,2 km/h (1 Bft)
22.06.2017 01:25 20,8 C 20,8 C 78 % 1014,0 hPa 0,0 l/m 0,2 km/h (0 Bft) N-NO 19 0 min 0 W/m 16,8 C 20,8 C 1,6 km/h (1 Bft)
22.06.2017 01:20 20,9 C 20,9 C 78 % 1014,1 hPa 0,0 l/m 0,8 km/h (0 Bft) N-NO 19 0 min 0 W/m 16,9 C 20,9 C 1,6 km/h (1 Bft)
22.06.2017 01:15 20,9 C 20,9 C 77 % 1014,1 hPa 0,0 l/m 0,3 km/h (0 Bft) N-NO 19 0 min 0 W/m 16,7 C 20,9 C 1,6 km/h (1 Bft)
22.06.2017 01:10 21,1 C 21,1 C 77 % 1014,1 hPa 0,0 l/m 0,9 km/h (0 Bft) N-NO 19 0 min 0 W/m 16,9 C 21,1 C 3,2 km/h (1 Bft)
22.06.2017 01:05 21,2 C 21,2 C 77 % 1014,1 hPa 0,0 l/m 1,0 km/h (0 Bft) N-NO 19 0 min 0 W/m 17,0 C 21,2 C 3,2 km/h (1 Bft)
22.06.2017 01:00 21,3 C 21,3 C 76 % 1014,0 hPa 0,0 l/m 0,9 km/h (0 Bft) N-NO 19 0 min 0 W/m 16,9 C 21,3 C 3,2 km/h (1 Bft)
22.06.2017 00:55 21,4 C 21,4 C 76 % 1014,0 hPa 0,0 l/m 0,5 km/h (0 Bft) N-NO 19 0 min 0 W/m 17,0 C 21,4 C 3,2 km/h (1 Bft)
22.06.2017 00:50 21,5 C 21,5 C 76 % 1014,0 hPa 0,0 l/m 0,0 km/h (0 Bft) N-NO 19 0 min 0 W/m 17,1 C 21,5 C 0,0 km/h (0 Bft)
22.06.2017 00:45 21,6 C 21,6 C 75 % 1014,0 hPa 0,0 l/m 0,2 km/h (0 Bft) N-NO 19 0 min 0 W/m 17,0 C 21,6 C 1,6 km/h (1 Bft)
22.06.2017 00:40 21,7 C 21,7 C 75 % 1014,0 hPa 0,0 l/m 0,0 km/h (0 Bft) N-NO 19 0 min 0 W/m 17,1 C 21,7 C 0,0 km/h (0 Bft)
22.06.2017 00:35 21,7 C 21,7 C 75 % 1013,9 hPa 0,0 l/m 0,0 km/h (0 Bft) N-NO 19 0 min 0 W/m 17,1 C 21,7 C 0,0 km/h (0 Bft)
22.06.2017 00:30 21,8 C 21,8 C 74 % 1013,9 hPa 0,0 l/m 0,0 km/h (0 Bft) N-NO 19 0 min 0 W/m 17,0 C 21,8 C 0,0 km/h (0 Bft)
22.06.2017 00:25 21,8 C 21,8 C 74 % 1013,9 hPa 0,0 l/m 1,8 km/h (1 Bft) N-NO 19 0 min 0 W/m 17,0 C 21,8 C 4,8 km/h (1 Bft)
22.06.2017 00:20 21,9 C 21,9 C 73 % 1014,0 hPa 0,0 l/m 1,6 km/h (1 Bft) N-NO 19 0 min 0 W/m 16,8 C 21,9 C 3,2 km/h (1 Bft)
22.06.2017 00:15 22,1 C 22,1 C 73 % 1014,0 hPa 0,0 l/m 2,8 km/h (1 Bft) N-NO 23 0 min 0 W/m 17,0 C 22,1 C 4,8 km/h (1 Bft)
22.06.2017 00:10 22,2 C 22,2 C 73 % 1014,1 hPa 0,0 l/m 3,2 km/h (1 Bft) NO 42 0 min 0 W/m 17,1 C 22,2 C 4,8 km/h (1 Bft)
22.06.2017 00:05 22,3 C 22,3 C 72 % 1014,0 hPa 0,0 l/m 3,4 km/h (1 Bft) NO 46 0 min 0 W/m 17,0 C 22,3 C 4,8 km/h (1 Bft)
22.06.2017 00:00 22,4 C 22,4 C 72 % 1014,0 hPa 0,0 l/m 2,9 km/h (1 Bft) NO 46 0 min 0 W/m 17,1 C 22,4 C 6,4 km/h (2 Bft)
_ Min-Zeit 05:30 05:30 13:20 20:50 - 00:30 - - - - 13:25 05:30 00:30
Minimum _ 17,7 C 17,7 C 31 % 1008,5 hPa - 0,0 km/h (0 Bft) - - - - 15,4 C 17,7 C 0,0 km/h (0 Bft)
_ Max-Zeit 14:15 14:15 06:10 00:10 00:00 15:05 - - 00:00 00:00 20:40 13:35 15:20
Maximum _ 35,8 C 35,6 C 88 % 1014,1 hPa 0,0 l/m 9,7 km/h
S (2 Bft)
- - 0 min 0 W/m 20,9 C 35,7 C 25,7 km/h
SW (4 Bft)
Durchschnitt _ 27,4 C 27,3 C 58 % 1012,3 hPa #0,0 l/m 2,5 km/h (1 Bft) S - #0 min. 0 W/m 17,3 C 27,4 C 6,2 km/h (2 Bft)